Hovedside
METAR-TAF:

METAR-TAF

Lufthavner :

Dala lufthavn

Borlänge, Sverige

breddegrad: 60-26N, lengdegrad: 015-31E, høyde over havet: 145 m

Gjeldene værobservasjon

Denne rapporten ble laget for 29 minutter siden, klokken 18:20 UTC
Vind 5 kt fra Øst-sørøst
Temperatur 0°C
Luftfuktighet 86%
Trykk 1038 hPa
Sikt 10 km eller mer
frysende, ukjent

METAR: ESSD 191820Z AUTO 12005KT 9999 FZUP OVC017/// M00/M02 Q1038 REFZUP REUP

Tid: 19:49 (18:49 UTC)

Varsel

Denne rapporten ble laget for 7 timer og 19 minutter siden, klokken 11:30 UTC
Varsel gyldig fra 19. klokken 12 UTC til 19. klokken 16 UTC
Vind 6 kt fra Nord-nordøst
Sikt 10 km eller mer
Få skyer i en høyde av 1200 ft
Overskyet i en høyde av 1500 ft
Sannsynlighet 40%
fra 19. klokken 12 UTC til 19. klokken 16 UTC
Brutte skyer i en høyde av 1200 ft

TAF: ESSD 191130Z 1912/1916 02006KT 9999 FEW012 OVC015 PROB40 1912/1916 BKN012

Værobservasjoner og værvarsel for over 4000 flyplasser (METAR- og TAF-rapporter).

Tilgjengelige stasjoner er representert av de røde og gule prikkene på kartet.

Hold musepekeren over prikken for å se navnet på stasjonen.

Klikk så for å se værobservasjoner og -varsler.

For å forandre kartet kan du klikke på den grønne knappen med svart kryss for å zoome inn, på den grønne knappen med strek for å zoome ut, eller på de grønne pilene for å se tilstøtende kart.


METAR-TAF: